Aérodrome :
LOGIN :

S'inscrire | Disclaimer

   EN    FR    IT 

 










Légende :    VFR   VFR Marginal   IFR   IFR Intensif   IFR Très Intensif
Visi : 
Plafond : 
>= 8 km
>= 3000ft
5 à 8 km
1000 à 3000 ft
1500m à 5 km
500 à 1000 ft
800 à 1500m
200 à 500 ft
< 800m
< 200 ft
Symboles :   Orages  Brouillard  Fortes neiges  Fortes précipitations  Vent > 20 kt
SIGMETs :   Divers  Orages  Givrage  Turbulence  Onde Orograph.  Cendres Volcan.






- Altitude de l'aérodrome : 290 ft
- Code IATA : ACI


EGJA - Alderney

DERNIER METAR :
  • 281250Z 21021KT 4000 FEW001 BKN002 10/10 Q1005

METARs EXPIRÉS :
  • 281220Z 21022KT 4000 FEW001 BKN002 10/10 Q1006 RERA
  • 281150Z 20020KT 2000 RADZ BKN002 10/09 Q1006
  • 281120Z 21020KT 9999 BKN007 10/09 Q1006
  • 281050Z 21021KT 9999 BKN005 09/09 Q1007

TAF AMD TAF EGJA
Valide du 28 à 12h jusqu'au 28 à 21h UTC


281158Z 2812/2821 22025G35KT 9999 SCT004 BKN012
TEMPO 2812/2816 6000 -RADZ BKN006
TEMPO 2812/2814 1500 RADZ BR BKN001
PROB30
TEMPO 2812/2814 0200 RADZ FG BKN000



MET'MAP, la Météo Aéronautique d'un coup d'oeil ! - Copyright ORBIFLY Décembre 2007 - Disclaimer

ORBIFLY MET'MAP TEAM :

Programmation & Développement : Alexandra Zaïnal
Sur une idée originale de : Baudouin d'Aumeries
Assistance à la programmation : Marc-Olivier Méhu
Soutien technique & logistique : Manuel Goepfert

Contact : metmap@orbifly.com




SOURCES & CREDITS :

   NOAA